Time;durP1;ratioP1;P1;durP2;ratioP2;P2;SDS_P1;SDS_P2;PMS_P1;PMS_P2;Temp;Humidity;BMP_temperature;BMP_pressure;BME280_temperature;BME280_humidity;BME280_pressure;Samples;Min_cycle;Max_cycle;Signal;HPM_P1;HPM_P2
2022/05/23 00:01:23;;;;;;;4.23;2.03;;;10.80;99.90;;;;;;5075731;28;20224;-77
2022/05/23 00:03:51;;;;;;;4.47;2.33;;;10.70;99.90;;;;;;5078477;28;20234;-77
2022/05/23 00:06:20;;;;;;;2.60;2.07;;;10.70;99.90;;;;;;5083450;27;20225;-78
2022/05/23 00:08:50;;;;;;;4.40;2.20;;;10.70;99.90;;;;;;5075351;28;20232;-78
2022/05/23 00:11:19;;;;;;;3.60;2.47;;;10.70;99.90;;;;;;5082235;28;20221;-77
2022/05/23 00:13:46;;;;;;;3.00;1.83;;;10.70;99.90;;;;;;5078015;28;20252;-78
2022/05/23 00:16:19;;;;;;;4.83;2.33;;;10.60;99.90;;;;;;5078191;28;20327;-77
2022/05/23 00:18:46;;;;;;;4.57;2.10;;;10.70;99.90;;;;;;5074720;28;20227;-77
2022/05/23 00:21:13;;;;;;;5.63;2.23;;;10.60;99.90;;;;;;5075387;28;20713;-77
2022/05/23 00:23:42;;;;;;;5.43;1.93;;;10.60;99.90;;;;;;5084107;28;20313;-77
2022/05/23 00:26:11;;;;;;;4.50;2.33;;;10.60;99.90;;;;;;5080093;28;20222;-78
2022/05/23 00:28:39;;;;;;;5.07;2.10;;;10.60;99.90;;;;;;5064451;28;20225;-77
2022/05/23 00:31:06;;;;;;;3.27;1.90;;;10.60;99.90;;;;;;5061043;28;20755;-77
2022/05/23 00:36:17;;;;;;;2.43;1.87;;;10.50;99.90;;;;;;5082428;28;20277;-78
2022/05/23 00:38:44;;;;;;;4.73;2.47;;;10.60;99.90;;;;;;5081681;28;20284;-78
2022/05/23 00:44:17;;;;;;;4.23;1.80;;;10.50;99.90;;;;;;5067128;28;20224;-77
2022/05/23 00:46:53;;;;;;;2.63;1.80;;;10.50;99.90;;;;;;5057838;28;20223;-78
2022/05/23 00:49:22;;;;;;;7.67;2.40;;;10.40;99.90;;;;;;5060177;28;20579;-78
2022/05/23 00:51:49;;;;;;;6.70;2.57;;;10.40;99.90;;;;;;5059005;28;20236;-78
2022/05/23 00:54:17;;;;;;;5.03;1.90;;;10.40;99.90;;;;;;5059706;28;20709;-78
2022/05/23 00:56:47;;;;;;;4.87;2.23;;;10.30;99.90;;;;;;5055729;28;20223;-77
2022/05/23 00:59:19;;;;;;;6.30;2.60;;;10.30;99.90;;;;;;5061906;28;20219;-77
2022/05/23 01:01:47;;;;;;;5.27;2.23;;;10.30;99.90;;;;;;5058621;28;20270;-78
2022/05/23 01:04:13;;;;;;;3.60;1.73;;;10.20;99.90;;;;;;5058023;28;20227;-78
2022/05/23 01:06:40;;;;;;;3.37;2.07;;;10.20;99.90;;;;;;5061249;28;20247;-77
2022/05/23 01:09:07;;;;;;;6.63;2.37;;;10.20;99.90;;;;;;5056427;28;20228;-78
2022/05/23 01:11:35;;;;;;;4.63;2.57;;;10.20;99.90;;;;;;5053780;28;20215;-77
2022/05/23 01:14:03;;;;;;;3.87;2.10;;;10.10;99.90;;;;;;5058929;28;20242;-78
2022/05/23 01:16:30;;;;;;;2.83;1.80;;;10.10;99.90;;;;;;5059340;28;20573;-77
2022/05/23 01:19:01;;;;;;;4.73;2.30;;;10.10;99.90;;;;;;5056655;28;20656;-77
2022/05/23 01:21:34;;;;;;;3.73;2.10;;;10.10;99.90;;;;;;5056378;28;20235;-78
2022/05/23 01:24:08;;;;;;;3.30;2.23;;;10.00;99.90;;;;;;5058680;28;20311;-77
2022/05/23 01:26:44;;;;;;;6.17;2.30;;;10.00;99.90;;;;;;5059272;28;20220;-77
2022/05/23 01:29:18;;;;;;;4.90;2.03;;;9.90;99.90;;;;;;5061790;28;20226;-78
2022/05/23 01:31:49;;;;;;;2.67;2.10;;;9.90;99.90;;;;;;5057357;28;20268;-78
2022/05/23 01:34:22;;;;;;;2.90;2.10;;;9.90;99.90;;;;;;5061061;28;20716;-78
2022/05/23 01:36:55;;;;;;;2.83;2.20;;;9.90;99.90;;;;;;5064742;28;20817;-78
2022/05/23 01:39:25;;;;;;;3.53;2.07;;;9.80;99.90;;;;;;5061339;28;20303;-78
2022/05/23 01:41:54;;;;;;;2.77;1.93;;;9.80;99.90;;;;;;5050781;28;20224;-78
2022/05/23 01:44:21;;;;;;;3.60;2.27;;;9.80;99.90;;;;;;5061160;28;20308;-78
2022/05/23 01:47:11;;;;;;;6.17;2.60;;;9.70;99.90;;;;;;5058995;28;20219;-78
2022/05/23 01:49:56;;;;;;;5.80;2.50;;;9.70;99.90;;;;;;5061713;28;20253;-78
2022/05/23 01:52:37;;;;;;;3.87;2.33;;;9.70;99.90;;;;;;5081554;28;20253;-78
2022/05/23 01:55:10;;;;;;;3.03;2.20;;;9.70;99.90;;;;;;5085207;28;20222;-78
2022/05/23 01:57:40;;;;;;;3.30;2.30;;;9.60;99.90;;;;;;5071758;28;20309;-78
2022/05/23 02:02:54;;;;;;;2.73;2.03;;;9.60;99.90;;;;;;5082486;28;20214;-78
2022/05/23 02:05:24;;;;;;;3.50;2.37;;;9.60;99.90;;;;;;5085791;28;20222;-78
2022/05/23 02:07:51;;;;;;;4.67;2.17;;;9.50;99.90;;;;;;5087412;28;20293;-78
2022/05/23 02:10:18;;;;;;;6.23;2.33;;;9.60;99.90;;;;;;5086330;28;20229;-78
2022/05/23 02:12:49;;;;;;;4.43;2.30;;;9.60;99.90;;;;;;5071729;28;20234;-78
2022/05/23 02:15:21;;;;;;;4.30;2.03;;;9.60;99.90;;;;;;5081558;28;20309;-78
2022/05/23 02:17:48;;;;;;;7.40;2.60;;;9.60;99.90;;;;;;5084724;28;20246;-79
2022/05/23 02:20:16;;;;;;;6.37;2.43;;;9.60;99.90;;;;;;5084924;28;20710;-78
2022/05/23 02:22:43;;;;;;;5.50;2.53;;;9.60;99.90;;;;;;5084078;28;20644;-78
2022/05/23 02:25:21;;;;;;;5.53;2.30;;;9.60;99.90;;;;;;5084333;28;20226;-78
2022/05/23 02:27:51;;;;;;;4.77;2.57;;;9.70;99.90;;;;;;5087742;28;20632;-77
2022/05/23 02:30:19;;;;;;;3.93;2.10;;;9.80;99.90;;;;;;5066290;28;20657;-77
2022/05/23 02:32:46;;;;;;;3.53;2.20;;;9.80;99.90;;;;;;5072019;28;20221;-77
2022/05/23 02:35:14;;;;;;;3.50;2.27;;;9.80;99.90;;;;;;5065572;28;20229;-77
2022/05/23 02:37:41;;;;;;;4.87;2.40;;;9.80;99.90;;;;;;5066610;28;20328;-77
2022/05/23 02:40:10;;;;;;;4.27;2.60;;;9.80;99.90;;;;;;5067963;28;20781;-77
2022/05/23 02:42:39;;;;;;;3.13;2.53;;;9.80;99.90;;;;;;5073610;28;21384;-77
2022/05/23 02:45:08;;;;;;;3.17;2.30;;;9.80;99.90;;;;;;5078116;28;20223;-77
2022/05/23 02:47:39;;;;;;;4.57;2.10;;;9.80;99.90;;;;;;5085672;28;20232;-78
2022/05/23 02:50:08;;;;;;;7.37;2.40;;;9.80;99.90;;;;;;5088585;28;20689;-78
2022/05/23 02:52:42;;;;;;;3.63;2.33;;;9.80;99.90;;;;;;5084942;28;20233;-77
2022/05/23 02:55:28;;;;;;;3.63;2.60;;;9.80;99.90;;;;;;5087470;28;20785;-77
2022/05/23 02:57:57;;;;;;;5.97;2.53;;;9.70;99.90;;;;;;5076954;28;20224;-77
2022/05/23 03:00:29;;;;;;;2.57;2.00;;;9.70;99.90;;;;;;5071731;28;20278;-77
2022/05/23 03:03:02;;;;;;;3.97;2.50;;;9.60;99.90;;;;;;5076034;28;20311;-78
2022/05/23 03:05:39;;;;;;;4.97;2.60;;;9.60;99.90;;;;;;5082898;28;20734;-79
2022/05/23 03:08:07;;;;;;;4.50;2.37;;;9.60;99.90;;;;;;5083239;28;20706;-78
2022/05/23 03:10:35;;;;;;;3.60;2.40;;;9.50;99.90;;;;;;5078132;28;20221;-78
2022/05/23 03:13:02;;;;;;;4.17;2.20;;;9.50;99.90;;;;;;5081805;28;20298;-79
2022/05/23 03:15:31;;;;;;;4.27;2.70;;;9.50;99.90;;;;;;5085129;28;20263;-78
2022/05/23 03:17:58;;;;;;;4.27;2.47;;;9.50;99.90;;;;;;5086796;28;20297;-77
2022/05/23 03:20:25;;;;;;;4.53;3.03;;;9.60;99.90;;;;;;5083501;28;20328;-78
2022/05/23 03:28:24;;;;;;;2.83;2.23;;;9.50;99.90;;;;;;5087737;27;20678;-78
2022/05/23 03:30:53;;;;;;;4.37;2.23;;;9.60;99.90;;;;;;5087240;28;20253;-78
2022/05/23 03:33:21;;;;;;;5.33;2.60;;;9.50;99.90;;;;;;5084277;28;20348;-78
2022/05/23 03:35:48;;;;;;;4.67;2.70;;;9.50;99.90;;;;;;5087908;28;20279;-78
2022/05/23 03:38:15;;;;;;;6.30;2.70;;;9.50;99.90;;;;;;5088043;28;20522;-78
2022/05/23 03:40:43;;;;;;;7.00;2.83;;;9.50;99.90;;;;;;5085354;28;20219;-78
2022/05/23 03:43:11;;;;;;;4.70;2.57;;;9.50;99.90;;;;;;5084696;28;20225;-78
2022/05/23 03:45:38;;;;;;;3.40;2.47;;;9.50;99.90;;;;;;5086614;28;20226;-78
2022/05/23 03:48:11;;;;;;;3.97;2.43;;;9.60;99.90;;;;;;5081097;28;20294;-78
2022/05/23 03:50:38;;;;;;;3.30;2.30;;;9.60;99.90;;;;;;5072477;28;20236;-78
2022/05/23 03:53:07;;;;;;;3.53;2.20;;;9.60;99.90;;;;;;5087444;28;20222;-78
2022/05/23 03:55:39;;;;;;;3.47;2.80;;;9.60;99.90;;;;;;5087801;28;20732;-78
2022/05/23 03:58:17;;;;;;;4.97;2.53;;;9.70;99.90;;;;;;5087064;28;20229;-78
2022/05/23 04:01:05;;;;;;;3.67;2.00;;;9.70;99.90;;;;;;5072156;28;20449;-78
2022/05/23 04:03:33;;;;;;;4.97;2.60;;;9.70;99.90;;;;;;5083010;28;20226;-78
2022/05/23 04:06:00;;;;;;;4.53;2.20;;;9.80;99.90;;;;;;5065609;27;20216;-78
2022/05/23 04:08:31;;;;;;;6.63;2.20;;;9.90;99.90;;;;;;5077947;28;20222;-78
2022/05/23 04:11:02;;;;;;;3.23;2.17;;;9.90;99.90;;;;;;5074442;28;20684;-77
2022/05/23 04:13:29;;;;;;;6.37;2.10;;;10.00;99.90;;;;;;5086620;27;20728;-78
2022/05/23 04:15:57;;;;;;;4.23;2.37;;;10.10;99.90;;;;;;5067467;28;20301;-78
2022/05/23 04:18:24;;;;;;;5.50;2.00;;;10.10;99.90;;;;;;5063484;28;20273;-77
2022/05/23 04:20:53;;;;;;;3.90;1.97;;;10.20;99.90;;;;;;5066039;28;20281;-79
2022/05/23 04:23:23;;;;;;;4.67;2.47;;;10.20;99.90;;;;;;5061954;27;20318;-76
2022/05/23 04:25:50;;;;;;;3.10;2.23;;;10.30;99.90;;;;;;5072898;28;20218;-76
2022/05/23 04:28:20;;;;;;;5.00;2.13;;;10.40;99.90;;;;;;5069478;27;20242;-76
2022/05/23 04:30:48;;;;;;;3.87;2.23;;;10.50;99.90;;;;;;5066599;28;20733;-79
2022/05/23 04:36:06;;;;;;;3.53;2.20;;;10.60;99.90;;;;;;5053869;28;20713;-76
2022/05/23 04:38:36;;;;;;;4.70;1.90;;;10.70;99.90;;;;;;5058375;28;20237;-76
2022/05/23 04:41:06;;;;;;;3.10;1.80;;;10.70;99.90;;;;;;5053288;28;20225;-76
2022/05/23 04:43:47;;;;;;;3.53;1.90;;;10.70;99.90;;;;;;5061929;28;20273;-76
2022/05/23 04:46:20;;;;;;;2.63;1.70;;;10.70;99.90;;;;;;5058753;28;20233;-76
2022/05/23 04:52:01;;;;;;;4.40;2.07;;;10.80;99.90;;;;;;5054490;28;20678;-76
2022/05/23 04:54:35;;;;;;;2.90;2.10;;;10.70;99.90;;;;;;5056050;28;20211;-76
2022/05/23 04:57:04;;;;;;;3.63;2.00;;;10.70;99.90;;;;;;5050999;28;20226;-76
2022/05/23 04:59:34;;;;;;;2.80;1.67;;;10.70;99.90;;;;;;5053635;28;20627;-76
2022/05/23 05:02:02;;;;;;;4.40;2.03;;;10.70;99.90;;;;;;5061279;28;20233;-76
2022/05/23 05:04:29;;;;;;;3.97;1.80;;;10.70;99.90;;;;;;5072413;28;20573;-76
2022/05/23 05:06:56;;;;;;;3.40;2.10;;;10.70;99.90;;;;;;5079814;28;20286;-77
2022/05/23 05:09:25;;;;;;;3.90;1.70;;;10.70;99.90;;;;;;5077462;28;20280;-77
2022/05/23 05:12:00;;;;;;;4.37;1.80;;;10.80;99.90;;;;;;5072932;28;20369;-77
2022/05/23 05:14:31;;;;;;;4.17;1.97;;;10.80;99.90;;;;;;5075371;28;20234;-77
2022/05/23 05:17:03;;;;;;;3.80;2.20;;;10.80;99.90;;;;;;5065403;28;20238;-77
2022/05/23 05:19:31;;;;;;;3.37;1.97;;;10.90;99.90;;;;;;5063228;28;20307;-77
2022/05/23 05:22:27;;;;;;;3.70;2.00;;;11.00;99.90;;;;;;5064342;28;20248;-77
2022/05/23 05:25:12;;;;;;;2.70;1.70;;;11.10;99.90;;;;;;5052712;28;20310;-76
2022/05/23 05:27:47;;;;;;;2.87;1.93;;;11.20;99.90;;;;;;5048032;28;20592;-76
2022/05/23 05:30:19;;;;;;;3.47;1.70;;;11.40;99.90;;;;;;5058636;28;20240;-76
2022/05/23 05:32:52;;;;;;;3.23;1.80;;;11.50;99.90;;;;;;5048193;28;20232;-76
2022/05/23 05:35:25;;;;;;;2.97;1.93;;;11.70;99.90;;;;;;5053260;28;20605;-76
2022/05/23 05:37:55;;;;;;;4.67;1.97;;;11.90;99.90;;;;;;5056726;28;20235;-76
2022/05/23 05:40:27;;;;;;;2.57;1.40;;;12.00;99.90;;;;;;5059308;28;20226;-76
2022/05/23 05:42:59;;;;;;;2.77;1.60;;;12.10;99.90;;;;;;5053183;28;20231;-77
2022/05/23 05:45:31;;;;;;;2.50;1.60;;;12.10;99.90;;;;;;5063787;28;20231;-76
2022/05/23 05:48:08;;;;;;;1.83;1.30;;;12.20;99.90;;;;;;5055802;28;20302;-76
2022/05/23 05:50:40;;;;;;;2.50;1.60;;;12.30;99.90;;;;;;5061700;28;20224;-76
2022/05/23 05:53:22;;;;;;;2.33;1.60;;;12.30;99.90;;;;;;5061996;28;20303;-76
2022/05/23 05:55:53;;;;;;;2.77;1.70;;;12.40;99.90;;;;;;5063285;28;20224;-76
2022/05/23 05:58:22;;;;;;;2.60;1.80;;;12.40;99.90;;;;;;5059025;28;20227;-78
2022/05/23 06:00:53;;;;;;;4.37;1.53;;;12.50;99.90;;;;;;5060982;28;20701;-77
2022/05/23 06:03:23;;;;;;;2.87;1.40;;;12.50;99.90;;;;;;5068921;28;20320;-78
2022/05/23 06:11:34;;;;;;;4.67;1.40;;;12.70;99.90;;;;;;5077663;28;20226;-78
2022/05/23 06:14:15;;;;;;;3.37;1.30;;;12.80;99.90;;;;;;5078692;28;20641;-77
2022/05/23 06:16:52;;;;;;;2.90;1.70;;;12.90;99.90;;;;;;5070630;28;20309;-78
2022/05/23 06:19:28;;;;;;;2.53;1.37;;;13.00;99.90;;;;;;5070094;28;20221;-79
2022/05/23 06:22:11;;;;;;;2.00;1.47;;;13.10;99.80;;;;;;5064119;28;20226;-78
2022/05/23 06:24:44;;;;;;;3.17;1.20;;;13.10;99.60;;;;;;5065597;28;20956;-79
2022/05/23 06:27:12;;;;;;;1.67;1.30;;;13.20;99.40;;;;;;5067997;28;20319;-79
2022/05/23 06:29:40;;;;;;;2.53;1.27;;;13.30;99.20;;;;;;5080746;28;20230;-78
2022/05/23 06:32:31;;;;;;;3.40;1.50;;;13.40;99.30;;;;;;5078210;28;20224;-79
2022/05/23 06:34:58;;;;;;;6.30;1.50;;;13.50;98.90;;;;;;5074750;28;20329;-79
2022/05/23 06:37:25;;;;;;;5.67;1.30;;;13.60;98.90;;;;;;5068649;28;20309;-79
2022/05/23 06:40:04;;;;;;;2.73;1.20;;;13.80;98.80;;;;;;5067056;28;20535;-79
2022/05/23 06:42:51;;;;;;;1.97;1.23;;;13.90;98.10;;;;;;5079738;28;20319;-79
2022/05/23 06:45:53;;;;;;;2.83;1.40;;;14.10;97.90;;;;;;5071511;28;21073;-79
2022/05/23 06:48:45;;;;;;;2.60;1.50;;;14.30;97.60;;;;;;5090585;28;20710;-79
2022/05/23 06:51:19;;;;;;;3.03;1.40;;;14.50;97.40;;;;;;5085347;28;20210;-79
2022/05/23 06:53:48;;;;;;;4.10;1.40;;;14.60;97.60;;;;;;5074388;28;20243;-79
2022/05/23 06:56:40;;;;;;;5.10;1.27;;;14.80;97.10;;;;;;5084460;28;20763;-79
2022/05/23 06:59:12;;;;;;;3.50;1.20;;;15.00;97.10;;;;;;5065788;28;20227;-79
2022/05/23 07:01:45;;;;;;;2.57;1.20;;;15.20;96.80;;;;;;5050169;28;20235;-79
2022/05/23 07:13:08;;;;;;;4.15;1.10;;;17.10;94.40;;;;;;5087090;28;20261;-79
2022/05/23 07:15:46;;;;;;;2.53;1.33;;;17.60;93.70;;;;;;5082249;28;20227;-79
2022/05/23 07:18:15;;;;;;;2.03;1.23;;;18.10;93.30;;;;;;5078551;27;20282;-79
2022/05/23 07:20:43;;;;;;;4.00;1.27;;;18.60;93.30;;;;;;5086489;28;20258;-79
2022/05/23 07:23:25;;;;;;;2.22;1.42;;;19.10;92.80;;;;;;5085961;28;20223;-79
2022/05/23 07:25:58;;;;;;;1.70;1.02;;;19.80;92.40;;;;;;5071726;28;20349;-79
2022/05/23 07:28:49;;;;;;;1.88;1.33;;;20.50;90.90;;;;;;5062877;28;20234;-79
2022/05/23 07:31:19;;;;;;;3.97;1.20;;;21.20;90.00;;;;;;5057145;28;20215;-80
2022/05/23 07:33:47;;;;;;;1.95;1.02;;;21.80;87.40;;;;;;5063963;28;20228;-79
2022/05/23 07:36:18;;;;;;;2.42;1.05;;;22.30;87.20;;;;;;5053122;28;20304;-79
2022/05/23 07:38:46;;;;;;;2.47;1.10;;;22.70;83.60;;;;;;5055297;28;20270;-79
2022/05/23 07:41:25;;;;;;;2.45;1.02;;;23.10;82.90;;;;;;5057942;28;20533;-79
2022/05/23 07:43:56;;;;;;;2.38;1.10;;;23.40;81.50;;;;;;5056552;28;20357;-78
2022/05/23 07:46:24;;;;;;;2.88;1.00;;;23.60;81.10;;;;;;5055413;28;20253;-78
2022/05/23 07:48:53;;;;;;;2.88;1.20;;;23.90;78.50;;;;;;5055069;28;20224;-79
2022/05/23 07:51:23;;;;;;;2.72;0.93;;;24.20;77.60;;;;;;5051889;28;20225;-77
2022/05/23 08:02:26;;;;;;;1.88;0.95;;;25.30;72.60;;;;;;5053319;28;20273;-78
2022/05/23 08:05:01;;;;;;;1.95;0.90;;;25.40;70.20;;;;;;5066066;28;20231;-78
2022/05/23 08:07:28;;;;;;;2.97;1.17;;;25.60;70.80;;;;;;5067354;28;20247;-81
2022/05/23 08:10:00;;;;;;;2.00;1.20;;;25.70;70.50;;;;;;5051878;28;20661;-82
2022/05/23 08:12:29;;;;;;;3.38;1.20;;;25.80;69.50;;;;;;5058155;28;20704;-77
2022/05/23 08:14:57;;;;;;;3.13;1.30;;;25.80;65.10;;;;;;5051388;28;20307;-77
2022/05/23 08:17:32;;;;;;;2.67;1.08;;;25.70;65.40;;;;;;5082521;28;20219;-78
2022/05/23 08:20:10;;;;;;;1.85;1.10;;;25.50;66.80;;;;;;5064713;28;20219;-77
2022/05/23 08:22:39;;;;;;;3.85;1.20;;;25.40;64.60;;;;;;5079792;28;20310;-77
2022/05/23 08:25:16;;;;;;;2.40;1.13;;;25.20;64.20;;;;;;5075107;28;20222;-77
2022/05/23 08:27:53;;;;;;;4.40;1.00;;;25.00;66.50;;;;;;5078964;28;20733;-77
2022/05/23 08:30:20;;;;;;;1.90;1.02;;;24.90;65.80;;;;;;5043218;28;20478;-77
2022/05/23 08:32:49;;;;;;;2.97;1.20;;;24.90;64.10;;;;;;5056851;28;20334;-77
2022/05/23 08:35:19;;;;;;;2.63;1.17;;;24.90;65.80;;;;;;5048553;28;20227;-77
2022/05/23 08:37:54;;;;;;;3.65;1.40;;;25.10;66.00;;;;;;5060690;28;20223;-78
2022/05/23 08:40:50;;;;;;;2.17;1.25;;;25.10;65.10;;;;;;5056721;28;21026;-77
2022/05/23 08:43:26;;;;;;;3.65;1.35;;;25.40;65.40;;;;;;5049990;28;20355;-78
2022/05/23 08:45:57;;;;;;;2.95;1.30;;;25.50;64.10;;;;;;5052554;28;20594;-77
2022/05/23 08:48:42;;;;;;;3.95;1.30;;;25.70;63.80;;;;;;5053902;28;20235;-77
2022/05/23 08:51:14;;;;;;;2.58;1.35;;;25.90;62.80;;;;;;5080550;28;20329;-79
2022/05/23 08:54:14;;;;;;;2.75;1.40;;;26.10;63.90;;;;;;5073843;28;20219;-78
2022/05/23 08:57:05;;;;;;;2.72;1.00;;;26.20;62.00;;;;;;5050069;28;20234;-78
2022/05/23 08:59:42;;;;;;;4.20;1.55;;;26.30;61.60;;;;;;5085028;28;20234;-78
2022/05/23 09:02:20;;;;;;;4.18;1.45;;;26.40;61.80;;;;;;5080989;28;20223;-77
2022/05/23 09:04:57;;;;;;;2.00;1.20;;;26.50;61.50;;;;;;5072978;28;20230;-77
2022/05/23 09:07:30;;;;;;;3.28;1.45;;;26.60;61.60;;;;;;5059756;28;20323;-77
2022/05/23 09:10:00;;;;;;;3.92;1.08;;;26.70;62.70;;;;;;5055311;28;20256;-77
2022/05/23 09:12:27;;;;;;;2.72;1.67;;;26.80;62.60;;;;;;5055418;28;20227;-77
2022/05/23 09:14:54;;;;;;;2.53;1.20;;;27.00;60.80;;;;;;5050653;28;20223;-77
2022/05/23 09:17:24;;;;;;;1.67;0.90;;;27.20;60.30;;;;;;5049395;28;20563;-77
2022/05/23 09:20:00;;;;;;;4.43;1.35;;;27.40;61.30;;;;;;5055317;28;20242;-77
2022/05/23 09:22:43;;;;;;;3.25;1.42;;;27.60;59.70;;;;;;5062538;28;20223;-77
2022/05/23 09:25:11;;;;;;;2.33;1.35;;;27.70;58.00;;;;;;5060456;28;20241;-77
2022/05/23 09:27:40;;;;;;;3.17;1.58;;;27.90;58.80;;;;;;5051984;28;20222;-77
2022/05/23 09:30:10;;;;;;;2.50;1.20;;;28.00;57.30;;;;;;5052171;28;20258;-77
2022/05/23 09:32:40;;;;;;;2.50;1.20;;;28.00;56.20;;;;;;5056189;28;20327;-77
2022/05/23 09:35:15;;;;;;;2.92;1.42;;;28.10;56.60;;;;;;5053292;28;21032;-77
2022/05/23 09:37:44;;;;;;;3.00;1.17;;;28.10;56.90;;;;;;5060281;28;20222;-77
2022/05/23 09:40:25;;;;;;;5.15;1.83;;;28.20;57.40;;;;;;5054859;28;20269;-77
2022/05/23 09:48:24;;;;;;;3.42;1.48;;;28.20;56.10;;;;;;5055233;28;20284;-77
2022/05/23 09:51:01;;;;;;;2.95;1.10;;;28.40;57.10;;;;;;5060471;28;20253;-77
2022/05/23 09:53:30;;;;;;;3.45;1.48;;;28.60;57.40;;;;;;5050901;28;20261;-77
2022/05/23 09:56:28;;;;;;;4.13;1.45;;;28.90;56.00;;;;;;5061864;28;20315;-77
2022/05/23 09:58:56;;;;;;;3.67;1.33;;;29.00;53.80;;;;;;5055849;28;20270;-78
2022/05/23 10:01:27;;;;;;;3.17;1.40;;;29.10;51.60;;;;;;5065033;28;20234;-78
2022/05/23 10:03:54;;;;;;;4.47;1.63;;;28.90;50.90;;;;;;5055488;28;20231;-77
2022/05/23 10:06:33;;;;;;;2.95;1.50;;;28.70;52.30;;;;;;5055536;28;20223;-77
2022/05/23 10:09:00;;;;;;;3.40;1.80;;;28.30;51.30;;;;;;5056041;28;20316;-78
2022/05/23 10:11:54;;;;;;;3.33;1.90;;;28.00;51.10;;;;;;5080291;28;20222;-78
2022/05/23 10:14:23;;;;;;;4.90;1.48;;;27.80;51.40;;;;;;5079731;28;20263;-78
2022/05/23 10:16:55;;;;;;;4.72;1.50;;;27.50;52.60;;;;;;5081328;27;20223;-77
2022/05/23 10:19:33;;;;;;;2.92;1.40;;;27.40;53.20;;;;;;5097259;27;20880;-77
2022/05/23 10:22:13;;;;;;;3.83;1.60;;;27.30;53.70;;;;;;5059830;28;20276;-77
2022/05/23 10:24:48;;;;;;;3.30;1.65;;;27.20;53.40;;;;;;5068208;28;20233;-78
2022/05/23 10:27:26;;;;;;;4.30;1.67;;;27.20;53.20;;;;;;5079650;28;20868;-77
2022/05/23 10:29:58;;;;;;;3.17;1.70;;;27.10;52.90;;;;;;5083532;28;20797;-77
2022/05/23 10:32:32;;;;;;;2.33;1.60;;;27.10;52.90;;;;;;5086797;28;20709;-78
2022/05/23 10:35:06;;;;;;;4.18;1.85;;;27.10;53.30;;;;;;5088534;28;20276;-77
2022/05/23 10:37:36;;;;;;;3.60;1.63;;;27.00;51.60;;;;;;5088552;28;20571;-78
2022/05/23 10:42:57;;;;;;;8.55;2.17;;;26.80;51.70;;;;;;5091395;28;20218;-78
2022/05/23 10:45:30;;;;;;;2.25;1.58;;;26.80;53.10;;;;;;5092953;28;20280;-78
2022/05/23 10:48:20;;;;;;;2.30;1.35;;;26.80;53.60;;;;;;5096417;27;20239;-78
2022/05/23 10:50:54;;;;;;;4.22;1.65;;;27.00;53.90;;;;;;5083104;28;20225;-78
2022/05/23 10:53:34;;;;;;;4.20;1.73;;;27.20;52.60;;;;;;5100585;27;20247;-78
2022/05/23 10:56:14;;;;;;;5.05;1.65;;;27.40;53.10;;;;;;5094846;28;20222;-79
2022/05/23 10:58:45;;;;;;;5.40;1.80;;;27.50;52.80;;;;;;5089693;28;20237;-78
2022/05/23 11:01:35;;;;;;;3.47;1.63;;;27.60;52.10;;;;;;5088219;27;20227;-78
2022/05/23 11:04:13;;;;;;;4.57;1.92;;;27.70;52.00;;;;;;5076795;28;20746;-78
2022/05/23 11:07:00;;;;;;;4.72;1.60;;;27.70;50.30;;;;;;5061886;28;20808;-78
2022/05/23 11:09:35;;;;;;;2.80;1.30;;;27.70;51.20;;;;;;5054674;28;20220;-78
2022/05/23 11:12:15;;;;;;;3.20;1.60;;;27.70;50.50;;;;;;5056415;28;20227;-78
2022/05/23 11:14:54;;;;;;;3.67;1.50;;;27.50;50.10;;;;;;5076416;28;20222;-79
2022/05/23 11:17:32;;;;;;;2.78;1.55;;;27.40;50.70;;;;;;5083053;28;20219;-78
2022/05/23 11:20:10;;;;;;;4.03;1.10;;;27.40;52.50;;;;;;5087060;28;20412;-77
2022/05/23 11:22:43;;;;;;;4.07;1.58;;;27.20;50.40;;;;;;5088854;27;20234;-79
2022/05/23 11:25:26;;;;;;;3.35;1.50;;;27.10;49.60;;;;;;5088152;28;20261;-82
2022/05/23 11:33:45;;;;;;;4.97;1.70;;;26.90;50.30;;;;;;5081299;28;20264;-80
2022/05/23 11:36:18;;;;;;;3.88;1.50;;;26.90;50.80;;;;;;5082378;28;20215;-80
2022/05/23 11:38:47;;;;;;;3.45;1.55;;;27.00;50.90;;;;;;5087238;28;20223;-80
2022/05/23 11:41:31;;;;;;;4.47;1.38;;;27.10;49.90;;;;;;5062722;28;20246;-80
2022/05/23 11:43:58;;;;;;;3.53;1.58;;;27.10;49.40;;;;;;5054838;28;20236;-80
2022/05/23 11:47:04;;;;;;;3.97;1.60;;;27.10;50.00;;;;;;5060040;28;20311;-80
2022/05/23 11:49:41;;;;;;;2.78;1.50;;;26.80;49.30;;;;;;5059845;28;20317;-80
2022/05/23 11:52:22;;;;;;;3.33;1.48;;;26.80;50.20;;;;;;5057661;28;20300;-80
2022/05/23 11:54:49;;;;;;;2.50;1.40;;;26.70;50.20;;;;;;5071108;28;20219;-80
2022/05/23 11:57:37;;;;;;;4.15;1.80;;;26.80;51.30;;;;;;5060574;28;20242;-80
2022/05/23 12:00:27;;;;;;;3.47;1.40;;;26.80;50.10;;;;;;5061736;28;20227;-80
2022/05/23 12:03:11;;;;;;;2.90;1.50;;;26.90;51.70;;;;;;5049622;28;20289;-80
2022/05/23 12:05:38;;;;;;;5.65;1.75;;;27.10;50.80;;;;;;5056538;28;20231;-80
2022/05/23 12:08:27;;;;;;;4.88;2.05;;;27.20;50.80;;;;;;5053178;28;20325;-80
2022/05/23 12:11:01;;;;;;;3.45;1.52;;;27.20;49.80;;;;;;5077932;28;20223;-80
2022/05/23 12:13:38;;;;;;;3.45;1.55;;;27.10;50.10;;;;;;5059593;28;20224;-80
2022/05/23 12:16:26;;;;;;;8.43;1.92;;;27.00;49.40;;;;;;5058882;28;20219;-79
2022/05/23 12:19:14;;;;;;;2.63;1.33;;;26.80;49.40;;;;;;5062980;28;20232;-79
2022/05/23 12:21:44;;;;;;;4.22;1.40;;;26.60;50.30;;;;;;5062109;28;20224;-80
2022/05/23 12:24:18;;;;;;;3.53;1.40;;;26.60;50.90;;;;;;5054933;28;20280;-80
2022/05/23 12:26:50;;;;;;;5.10;1.80;;;26.50;50.80;;;;;;5059378;28;20223;-80
2022/05/23 12:29:34;;;;;;;2.50;1.30;;;26.50;50.70;;;;;;5062159;28;20219;-80
2022/05/23 12:32:12;;;;;;;2.20;1.50;;;26.50;51.30;;;;;;5057746;28;20231;-80
2022/05/23 12:34:46;;;;;;;4.38;1.65;;;26.70;52.20;;;;;;5077029;28;20304;-80
2022/05/23 12:37:27;;;;;;;2.65;1.30;;;26.80;51.20;;;;;;5075846;28;20222;-80
2022/05/23 12:40:07;;;;;;;2.35;1.50;;;26.90;52.30;;;;;;5076890;28;20300;-80
2022/05/23 12:42:45;;;;;;;3.40;1.70;;;27.10;52.30;;;;;;5058879;28;20294;-80
2022/05/23 12:45:29;;;;;;;5.38;1.42;;;27.30;51.30;;;;;;5061071;28;20734;-80
2022/05/23 12:48:20;;;;;;;3.50;1.70;;;27.40;51.10;;;;;;5057830;28;20219;-80
2022/05/23 12:50:56;;;;;;;2.90;1.50;;;27.50;50.60;;;;;;5059248;28;20234;-80
2022/05/23 12:53:40;;;;;;;2.35;1.40;;;27.60;51.60;;;;;;5055209;28;20729;-80
2022/05/23 12:56:30;;;;;;;2.65;1.52;;;27.60;51.90;;;;;;5056285;28;20277;-80
2022/05/23 12:59:36;;;;;;;1.65;1.30;;;27.80;51.70;;;;;;5057844;28;20310;-80
2022/05/23 13:02:06;;;;;;;4.50;1.50;;;28.00;52.00;;;;;;5056345;28;20247;-80
2022/05/23 13:04:39;;;;;;;1.95;1.27;;;28.10;51.10;;;;;;5061782;28;20300;-80
2022/05/23 13:07:12;;;;;;;3.03;1.38;;;28.30;51.30;;;;;;5062039;28;20279;-79
2022/05/23 13:09:45;;;;;;;3.47;1.58;;;28.40;51.00;;;;;;5060979;28;20235;-79
2022/05/23 13:12:18;;;;;;;4.60;1.58;;;28.50;50.70;;;;;;5059024;28;20251;-80
2022/05/23 13:14:50;;;;;;;2.25;1.45;;;28.70;50.80;;;;;;5078235;28;20279;-80
2022/05/23 13:17:35;;;;;;;2.13;1.20;;;28.90;50.30;;;;;;5073473;28;20416;-80
2022/05/23 13:22:49;;;;;;;5.40;1.33;;;29.20;50.30;;;;;;5079440;28;20230;-80
2022/05/23 13:25:16;;;;;;;4.47;1.35;;;29.20;49.80;;;;;;5078013;27;20219;-80
2022/05/23 13:27:48;;;;;;;2.30;1.40;;;29.20;50.10;;;;;;5060664;28;20223;-80
2022/05/23 13:30:27;;;;;;;2.90;1.65;;;29.20;49.70;;;;;;5069227;28;20305;-80
2022/05/23 13:33:08;;;;;;;3.67;1.40;;;29.20;50.70;;;;;;5075853;28;20225;-80
2022/05/23 13:35:36;;;;;;;5.55;1.42;;;29.10;50.10;;;;;;5081433;28;20288;-79
2022/05/23 13:38:21;;;;;;;3.70;1.80;;;29.10;50.50;;;;;;5077837;28;20315;-79
2022/05/23 13:40:50;;;;;;;3.05;1.60;;;29.10;50.00;;;;;;5060798;28;20752;-79
2022/05/23 13:43:20;;;;;;;4.03;1.65;;;29.00;47.70;;;;;;5058211;28;20219;-79
2022/05/23 13:45:56;;;;;;;4.20;1.58;;;29.00;48.80;;;;;;5073422;28;20268;-79
2022/05/23 13:48:29;;;;;;;6.93;1.90;;;28.90;49.30;;;;;;5058138;28;20292;-79
2022/05/23 13:51:02;;;;;;;3.15;1.42;;;28.80;49.10;;;;;;5056925;28;20245;-79
2022/05/23 13:53:35;;;;;;;5.70;1.70;;;28.70;48.50;;;;;;5055304;28;20608;-80
2022/05/23 13:56:03;;;;;;;3.60;1.52;;;28.60;49.10;;;;;;5054502;28;20224;-79
2022/05/23 13:58:32;;;;;;;3.20;1.40;;;28.50;49.50;;;;;;5049544;28;20229;-79
2022/05/23 14:01:05;;;;;;;2.50;1.35;;;28.40;49.60;;;;;;5059513;28;20238;-79
2022/05/23 14:03:35;;;;;;;6.85;1.70;;;28.40;49.40;;;;;;5061542;28;20230;-79
2022/05/23 14:06:06;;;;;;;3.85;1.80;;;28.30;49.70;;;;;;5064726;28;20226;-79
2022/05/23 14:08:39;;;;;;;3.97;1.60;;;28.20;50.60;;;;;;5060830;28;20590;-79
2022/05/23 14:11:10;;;;;;;2.65;1.60;;;28.10;50.10;;;;;;5054335;28;20359;-79
2022/05/23 14:13:36;;;;;;;2.60;1.50;;;28.00;50.10;;;;;;5051419;28;20362;-79
2022/05/23 14:16:05;;;;;;;3.13;1.70;;;27.90;50.60;;;;;;5061588;28;20223;-79
2022/05/23 14:18:34;;;;;;;3.67;1.80;;;27.90;51.10;;;;;;5061906;28;20682;-79
2022/05/23 14:21:01;;;;;;;5.50;1.73;;;27.90;49.90;;;;;;5057609;28;20306;-79